Disclaimer

Please do not use the information listed here in-flight or in-navigation, as they are not provided to us by the airports but are provided by volunteers, so they might be outdated.

Search


Regions


Airport information page

Radio informations:
Tower (TWR) - 119.2 MHz
Ground (GND) - 121.7 MHz
Automatic Terminal Information Service (ATIS) - 126.2 MHz
Approach (APP) - 127.1 MHz

Airport informations:
Latitude: 38° 32' 36.00" N
Longitude: 068° 49' 30.00" E
Elevation: 2575 feet - 785 meters
Operating hours: 24 hour operations
Operating agency: Military-civil joint use airport
Timezone: UTC+5
Fuel: Jet A1, without icing nhibitor.

Runway information:
09/27 - 10170 x 147 feet< - >3100 x 45 meters

Recent METARs:
UTDD 190100Z VRB01MPS 6000 FEW066CB 05/03 Q1023 R09/CLRD// NOSIG RMK QFE698/0931
UTDD 190130Z 26001MPS 3500 BR FU FEW066CB 05/03 Q1023 R09/CLRD// NOSIG RMK QFE699/0932
UTDD 190130Z 26001MPS 3500 BR FU FEW066CB 05/03 Q1023 R09/D NOSIG RMK QFE699/0932

Airport on the map: